sensor_id;sensor_type;location;lat;lon;timestamp;P1;durP1;ratioP1;P2;durP2;ratioP2
9942;SDS011;5010;45.080;7.634;2023-04-24T00:02:00;6.95;;;5.82;;
9942;SDS011;5010;45.080;7.634;2023-04-24T00:04:28;7.03;;;5.93;;
9942;SDS011;5010;45.080;7.634;2023-04-24T00:06:56;9.57;;;5.53;;
9942;SDS011;5010;45.080;7.634;2023-04-24T00:09:25;8.90;;;6.70;;
9942;SDS011;5010;45.080;7.634;2023-04-24T00:11:52;8.60;;;5.95;;
9942;SDS011;5010;45.080;7.634;2023-04-24T00:14:19;6.90;;;6.25;;
9942;SDS011;5010;45.080;7.634;2023-04-24T00:16:46;7.57;;;6.05;;
9942;SDS011;5010;45.080;7.634;2023-04-24T00:19:14;12.25;;;6.13;;
9942;SDS011;5010;45.080;7.634;2023-04-24T00:21:41;8.93;;;5.70;;
9942;SDS011;5010;45.080;7.634;2023-04-24T00:24:08;8.88;;;7.50;;
9942;SDS011;5010;45.080;7.634;2023-04-24T00:26:35;7.88;;;5.85;;
9942;SDS011;5010;45.080;7.634;2023-04-24T00:29:02;7.70;;;6.35;;
9942;SDS011;5010;45.080;7.634;2023-04-24T00:31:29;8.13;;;6.05;;
9942;SDS011;5010;45.080;7.634;2023-04-24T00:33:56;8.82;;;5.70;;
9942;SDS011;5010;45.080;7.634;2023-04-24T00:36:25;7.50;;;5.22;;
9942;SDS011;5010;45.080;7.634;2023-04-24T00:38:52;6.53;;;6.00;;
9942;SDS011;5010;45.080;7.634;2023-04-24T00:41:19;6.57;;;5.65;;
9942;SDS011;5010;45.080;7.634;2023-04-24T00:43:46;7.45;;;7.07;;
9942;SDS011;5010;45.080;7.634;2023-04-24T00:46:14;7.30;;;6.03;;
9942;SDS011;5010;45.080;7.634;2023-04-24T00:48:42;6.82;;;5.72;;
9942;SDS011;5010;45.080;7.634;2023-04-24T00:51:09;7.25;;;5.93;;
9942;SDS011;5010;45.080;7.634;2023-04-24T00:53:38;7.93;;;5.68;;
9942;SDS011;5010;45.080;7.634;2023-04-24T00:56:05;7.50;;;5.80;;
9942;SDS011;5010;45.080;7.634;2023-04-24T00:58:32;8.25;;;7.85;;
9942;SDS011;5010;45.080;7.634;2023-04-24T01:00:59;9.48;;;6.00;;
9942;SDS011;5010;45.080;7.634;2023-04-24T01:03:28;8.00;;;6.82;;
9942;SDS011;5010;45.080;7.634;2023-04-24T01:05:56;5.95;;;4.32;;
9942;SDS011;5010;45.080;7.634;2023-04-24T01:08:24;6.15;;;5.82;;
9942;SDS011;5010;45.080;7.634;2023-04-24T01:10:54;10.00;;;6.07;;
9942;SDS011;5010;45.080;7.634;2023-04-24T01:13:21;7.95;;;5.90;;
9942;SDS011;5010;45.080;7.634;2023-04-24T01:15:48;7.00;;;6.07;;
9942;SDS011;5010;45.080;7.634;2023-04-24T01:18:15;7.85;;;6.03;;
9942;SDS011;5010;45.080;7.634;2023-04-24T01:20:42;6.70;;;5.82;;
9942;SDS011;5010;45.080;7.634;2023-04-24T01:23:13;7.10;;;5.75;;
9942;SDS011;5010;45.080;7.634;2023-04-24T01:25:40;6.75;;;5.40;;
9942;SDS011;5010;45.080;7.634;2023-04-24T01:28:07;10.27;;;6.82;;
9942;SDS011;5010;45.080;7.634;2023-04-24T01:30:34;6.80;;;6.22;;
9942;SDS011;5010;45.080;7.634;2023-04-24T01:33:01;6.35;;;4.50;;
9942;SDS011;5010;45.080;7.634;2023-04-24T01:35:28;6.47;;;5.50;;
9942;SDS011;5010;45.080;7.634;2023-04-24T01:37:55;6.07;;;4.10;;
9942;SDS011;5010;45.080;7.634;2023-04-24T01:40:24;6.40;;;5.13;;
9942;SDS011;5010;45.080;7.634;2023-04-24T01:42:51;6.00;;;5.13;;
9942;SDS011;5010;45.080;7.634;2023-04-24T01:45:18;7.45;;;5.50;;
9942;SDS011;5010;45.080;7.634;2023-04-24T01:47:45;10.20;;;5.97;;
9942;SDS011;5010;45.080;7.634;2023-04-24T01:50:14;7.55;;;4.78;;
9942;SDS011;5010;45.080;7.634;2023-04-24T01:52:41;6.43;;;5.40;;
9942;SDS011;5010;45.080;7.634;2023-04-24T01:55:08;6.28;;;4.85;;
9942;SDS011;5010;45.080;7.634;2023-04-24T01:57:37;7.20;;;4.90;;
9942;SDS011;5010;45.080;7.634;2023-04-24T02:00:05;5.28;;;4.68;;
9942;SDS011;5010;45.080;7.634;2023-04-24T02:02:33;5.80;;;4.35;;
9942;SDS011;5010;45.080;7.634;2023-04-24T02:05:00;6.47;;;5.40;;
9942;SDS011;5010;45.080;7.634;2023-04-24T02:07:27;6.32;;;5.10;;
9942;SDS011;5010;45.080;7.634;2023-04-24T02:09:54;6.93;;;5.43;;
9942;SDS011;5010;45.080;7.634;2023-04-24T02:12:21;6.63;;;5.18;;
9942;SDS011;5010;45.080;7.634;2023-04-24T02:14:49;6.70;;;4.85;;
9942;SDS011;5010;45.080;7.634;2023-04-24T02:17:16;5.53;;;5.03;;
9942;SDS011;5010;45.080;7.634;2023-04-24T02:19:44;12.95;;;4.85;;
9942;SDS011;5010;45.080;7.634;2023-04-24T02:22:11;6.80;;;5.90;;
9942;SDS011;5010;45.080;7.634;2023-04-24T02:24:38;6.55;;;5.15;;
9942;SDS011;5010;45.080;7.634;2023-04-24T02:27:05;6.22;;;4.45;;
9942;SDS011;5010;45.080;7.634;2023-04-24T02:29:32;6.28;;;4.80;;
9942;SDS011;5010;45.080;7.634;2023-04-24T02:32:00;5.80;;;5.10;;
9942;SDS011;5010;45.080;7.634;2023-04-24T02:34:27;5.82;;;4.80;;
9942;SDS011;5010;45.080;7.634;2023-04-24T02:36:54;6.88;;;5.55;;
9942;SDS011;5010;45.080;7.634;2023-04-24T02:39:21;7.20;;;5.60;;
9942;SDS011;5010;45.080;7.634;2023-04-24T02:41:47;6.88;;;6.38;;
9942;SDS011;5010;45.080;7.634;2023-04-24T02:44:14;6.10;;;5.78;;
9942;SDS011;5010;45.080;7.634;2023-04-24T02:46:42;6.38;;;5.70;;
9942;SDS011;5010;45.080;7.634;2023-04-24T02:49:11;7.05;;;5.13;;
9942;SDS011;5010;45.080;7.634;2023-04-24T02:51:37;5.65;;;4.30;;
9942;SDS011;5010;45.080;7.634;2023-04-24T02:54:06;5.53;;;5.28;;
9942;SDS011;5010;45.080;7.634;2023-04-24T02:56:34;6.85;;;6.10;;
9942;SDS011;5010;45.080;7.634;2023-04-24T02:59:00;7.28;;;5.07;;
9942;SDS011;5010;45.080;7.634;2023-04-24T03:01:27;8.50;;;5.75;;
9942;SDS011;5010;45.080;7.634;2023-04-24T03:03:54;5.78;;;5.38;;
9942;SDS011;5010;45.080;7.634;2023-04-24T03:06:22;5.15;;;4.57;;
9942;SDS011;5010;45.080;7.634;2023-04-24T03:08:49;7.18;;;5.57;;
9942;SDS011;5010;45.080;7.634;2023-04-24T03:11:16;6.07;;;4.93;;
9942;SDS011;5010;45.080;7.634;2023-04-24T03:13:43;5.95;;;5.40;;
9942;SDS011;5010;45.080;7.634;2023-04-24T03:16:10;5.22;;;4.47;;
9942;SDS011;5010;45.080;7.634;2023-04-24T03:18:37;7.32;;;5.70;;
9942;SDS011;5010;45.080;7.634;2023-04-24T03:21:04;6.97;;;5.70;;
9942;SDS011;5010;45.080;7.634;2023-04-24T03:23:32;6.43;;;5.25;;
9942;SDS011;5010;45.080;7.634;2023-04-24T03:25:59;6.43;;;5.47;;
9942;SDS011;5010;45.080;7.634;2023-04-24T03:28:27;6.15;;;5.68;;
9942;SDS011;5010;45.080;7.634;2023-04-24T03:30:54;6.43;;;4.40;;
9942;SDS011;5010;45.080;7.634;2023-04-24T03:33:20;5.95;;;5.03;;
9942;SDS011;5010;45.080;7.634;2023-04-24T03:35:47;6.45;;;5.07;;
9942;SDS011;5010;45.080;7.634;2023-04-24T03:38:14;5.65;;;3.85;;
9942;SDS011;5010;45.080;7.634;2023-04-24T03:40:42;5.22;;;4.05;;
9942;SDS011;5010;45.080;7.634;2023-04-24T03:43:09;5.90;;;4.53;;
9942;SDS011;5010;45.080;7.634;2023-04-24T03:45:36;7.47;;;5.20;;
9942;SDS011;5010;45.080;7.634;2023-04-24T03:48:03;7.78;;;5.65;;
9942;SDS011;5010;45.080;7.634;2023-04-24T03:50:30;6.15;;;5.45;;
9942;SDS011;5010;45.080;7.634;2023-04-24T03:52:57;7.40;;;5.15;;
9942;SDS011;5010;45.080;7.634;2023-04-24T03:55:24;6.18;;;3.70;;
9942;SDS011;5010;45.080;7.634;2023-04-24T03:57:52;6.10;;;5.00;;
9942;SDS011;5010;45.080;7.634;2023-04-24T04:00:19;6.68;;;5.80;;
9942;SDS011;5010;45.080;7.634;2023-04-24T04:02:46;6.80;;;6.40;;
9942;SDS011;5010;45.080;7.634;2023-04-24T04:05:12;7.10;;;5.45;;
9942;SDS011;5010;45.080;7.634;2023-04-24T04:07:39;5.85;;;5.55;;
9942;SDS011;5010;45.080;7.634;2023-04-24T04:10:07;6.10;;;4.60;;
9942;SDS011;5010;45.080;7.634;2023-04-24T04:12:34;5.72;;;4.10;;
9942;SDS011;5010;45.080;7.634;2023-04-24T04:15:02;6.15;;;4.93;;
9942;SDS011;5010;45.080;7.634;2023-04-24T04:17:31;6.40;;;6.05;;
9942;SDS011;5010;45.080;7.634;2023-04-24T04:19:58;7.18;;;4.88;;
9942;SDS011;5010;45.080;7.634;2023-04-24T04:22:25;6.45;;;5.20;;
9942;SDS011;5010;45.080;7.634;2023-04-24T04:24:52;7.55;;;4.85;;
9942;SDS011;5010;45.080;7.634;2023-04-24T04:27:18;7.30;;;4.95;;
9942;SDS011;5010;45.080;7.634;2023-04-24T04:29:46;6.10;;;5.00;;
9942;SDS011;5010;45.080;7.634;2023-04-24T04:32:14;7.25;;;5.90;;
9942;SDS011;5010;45.080;7.634;2023-04-24T04:34:42;6.60;;;5.05;;
9942;SDS011;5010;45.080;7.634;2023-04-24T04:37:10;8.32;;;5.10;;
9942;SDS011;5010;45.080;7.634;2023-04-24T04:39:37;6.18;;;5.00;;
9942;SDS011;5010;45.080;7.634;2023-04-24T04:42:04;5.45;;;4.55;;
9942;SDS011;5010;45.080;7.634;2023-04-24T04:44:31;7.07;;;4.88;;
9942;SDS011;5010;45.080;7.634;2023-04-24T04:47:00;8.10;;;5.38;;
9942;SDS011;5010;45.080;7.634;2023-04-24T04:49:31;6.43;;;5.30;;
9942;SDS011;5010;45.080;7.634;2023-04-24T04:51:59;6.20;;;5.50;;
9942;SDS011;5010;45.080;7.634;2023-04-24T04:54:26;6.35;;;5.15;;
9942;SDS011;5010;45.080;7.634;2023-04-24T04:56:52;6.30;;;4.95;;
9942;SDS011;5010;45.080;7.634;2023-04-24T04:59:19;5.82;;;4.90;;
9942;SDS011;5010;45.080;7.634;2023-04-24T05:01:46;6.05;;;5.43;;
9942;SDS011;5010;45.080;7.634;2023-04-24T05:04:13;5.65;;;4.30;;
9942;SDS011;5010;45.080;7.634;2023-04-24T05:06:41;5.50;;;4.82;;
9942;SDS011;5010;45.080;7.634;2023-04-24T05:09:08;7.15;;;4.78;;
9942;SDS011;5010;45.080;7.634;2023-04-24T05:11:35;7.15;;;5.10;;
9942;SDS011;5010;45.080;7.634;2023-04-24T05:14:02;6.38;;;5.28;;
9942;SDS011;5010;45.080;7.634;2023-04-24T05:16:29;6.70;;;5.60;;
9942;SDS011;5010;45.080;7.634;2023-04-24T05:18:56;6.18;;;4.63;;
9942;SDS011;5010;45.080;7.634;2023-04-24T05:21:23;6.05;;;4.55;;
9942;SDS011;5010;45.080;7.634;2023-04-24T05:23:51;7.63;;;4.82;;
9942;SDS011;5010;45.080;7.634;2023-04-24T05:26:18;7.35;;;6.15;;
9942;SDS011;5010;45.080;7.634;2023-04-24T05:28:45;6.00;;;5.40;;
9942;SDS011;5010;45.080;7.634;2023-04-24T05:31:12;5.50;;;4.93;;
9942;SDS011;5010;45.080;7.634;2023-04-24T05:33:39;5.70;;;5.40;;
9942;SDS011;5010;45.080;7.634;2023-04-24T05:36:06;5.63;;;4.78;;
9942;SDS011;5010;45.080;7.634;2023-04-24T05:38:33;5.43;;;4.55;;
9942;SDS011;5010;45.080;7.634;2023-04-24T05:41:01;7.20;;;4.75;;
9942;SDS011;5010;45.080;7.634;2023-04-24T05:43:28;6.22;;;5.18;;
9942;SDS011;5010;45.080;7.634;2023-04-24T05:45:55;7.53;;;5.28;;
9942;SDS011;5010;45.080;7.634;2023-04-24T05:48:22;4.80;;;3.47;;
9942;SDS011;5010;45.080;7.634;2023-04-24T05:50:49;6.13;;;5.20;;
9942;SDS011;5010;45.080;7.634;2023-04-24T05:53:17;7.28;;;4.97;;
9942;SDS011;5010;45.080;7.634;2023-04-24T05:55:44;5.40;;;4.88;;
9942;SDS011;5010;45.080;7.634;2023-04-24T05:58:12;6.55;;;5.07;;
9942;SDS011;5010;45.080;7.634;2023-04-24T06:00:39;5.93;;;4.57;;
9942;SDS011;5010;45.080;7.634;2023-04-24T06:03:07;6.25;;;4.53;;
9942;SDS011;5010;45.080;7.634;2023-04-24T06:05:34;6.20;;;4.75;;
9942;SDS011;5010;45.080;7.634;2023-04-24T06:08:01;13.05;;;5.00;;
9942;SDS011;5010;45.080;7.634;2023-04-24T06:10:28;11.43;;;4.82;;
9942;SDS011;5010;45.080;7.634;2023-04-24T06:12:55;6.55;;;5.22;;
9942;SDS011;5010;45.080;7.634;2023-04-24T06:15:26;6.30;;;5.60;;
9942;SDS011;5010;45.080;7.634;2023-04-24T06:17:55;6.68;;;4.75;;
9942;SDS011;5010;45.080;7.634;2023-04-24T06:20:22;6.90;;;6.57;;
9942;SDS011;5010;45.080;7.634;2023-04-24T06:22:49;5.97;;;4.90;;
9942;SDS011;5010;45.080;7.634;2023-04-24T06:25:16;6.07;;;4.45;;
9942;SDS011;5010;45.080;7.634;2023-04-24T06:27:44;7.10;;;4.60;;
9942;SDS011;5010;45.080;7.634;2023-04-24T06:30:11;6.97;;;4.38;;
9942;SDS011;5010;45.080;7.634;2023-04-24T06:32:40;5.90;;;5.15;;
9942;SDS011;5010;45.080;7.634;2023-04-24T06:35:07;4.75;;;4.03;;
9942;SDS011;5010;45.080;7.634;2023-04-24T06:37:35;5.28;;;5.05;;
9942;SDS011;5010;45.080;7.634;2023-04-24T06:40:02;6.97;;;5.30;;
9942;SDS011;5010;45.080;7.634;2023-04-24T06:42:29;7.57;;;5.85;;
9942;SDS011;5010;45.080;7.634;2023-04-24T06:44:56;6.65;;;4.90;;
9942;SDS011;5010;45.080;7.634;2023-04-24T06:47:23;5.03;;;3.90;;
9942;SDS011;5010;45.080;7.634;2023-04-24T06:49:51;8.20;;;3.80;;
9942;SDS011;5010;45.080;7.634;2023-04-24T06:52:18;4.85;;;3.35;;
9942;SDS011;5010;45.080;7.634;2023-04-24T06:54:45;6.30;;;4.80;;
9942;SDS011;5010;45.080;7.634;2023-04-24T06:57:12;6.07;;;5.40;;
9942;SDS011;5010;45.080;7.634;2023-04-24T06:59:41;7.28;;;4.53;;
9942;SDS011;5010;45.080;7.634;2023-04-24T07:02:08;6.78;;;5.00;;
9942;SDS011;5010;45.080;7.634;2023-04-24T07:04:34;5.10;;;3.60;;
9942;SDS011;5010;45.080;7.634;2023-04-24T07:07:03;5.72;;;4.32;;
9942;SDS011;5010;45.080;7.634;2023-04-24T07:09:31;6.28;;;4.93;;
9942;SDS011;5010;45.080;7.634;2023-04-24T07:12:00;8.10;;;5.00;;
9942;SDS011;5010;45.080;7.634;2023-04-24T07:14:27;6.28;;;4.78;;
9942;SDS011;5010;45.080;7.634;2023-04-24T07:16:54;6.78;;;4.63;;
9942;SDS011;5010;45.080;7.634;2023-04-24T07:19:22;5.90;;;4.60;;
9942;SDS011;5010;45.080;7.634;2023-04-24T07:21:49;7.88;;;5.43;;
9942;SDS011;5010;45.080;7.634;2023-04-24T07:24:17;7.68;;;5.20;;
9942;SDS011;5010;45.080;7.634;2023-04-24T07:26:44;4.97;;;3.90;;
9942;SDS011;5010;45.080;7.634;2023-04-24T07:29:11;7.35;;;5.80;;
9942;SDS011;5010;45.080;7.634;2023-04-24T07:31:39;6.72;;;5.97;;
9942;SDS011;5010;45.080;7.634;2023-04-24T07:34:06;6.53;;;4.55;;
9942;SDS011;5010;45.080;7.634;2023-04-24T07:36:33;6.80;;;4.15;;
9942;SDS011;5010;45.080;7.634;2023-04-24T07:39:00;12.23;;;4.78;;
9942;SDS011;5010;45.080;7.634;2023-04-24T07:41:28;6.57;;;5.95;;
9942;SDS011;5010;45.080;7.634;2023-04-24T07:43:55;7.75;;;5.40;;
9942;SDS011;5010;45.080;7.634;2023-04-24T07:46:22;6.00;;;5.30;;
9942;SDS011;5010;45.080;7.634;2023-04-24T07:48:49;5.85;;;4.70;;
9942;SDS011;5010;45.080;7.634;2023-04-24T07:51:17;7.10;;;4.75;;
9942;SDS011;5010;45.080;7.634;2023-04-24T07:53:43;7.20;;;4.85;;
9942;SDS011;5010;45.080;7.634;2023-04-24T07:56:10;6.80;;;5.85;;
9942;SDS011;5010;45.080;7.634;2023-04-24T07:58:39;5.10;;;3.80;;
9942;SDS011;5010;45.080;7.634;2023-04-24T08:01:06;6.03;;;4.05;;
9942;SDS011;5010;45.080;7.634;2023-04-24T08:03:33;6.30;;;4.55;;
9942;SDS011;5010;45.080;7.634;2023-04-24T08:06:00;12.50;;;5.47;;
9942;SDS011;5010;45.080;7.634;2023-04-24T08:08:27;6.15;;;5.63;;
9942;SDS011;5010;45.080;7.634;2023-04-24T08:10:54;7.15;;;4.80;;
9942;SDS011;5010;45.080;7.634;2023-04-24T08:13:21;7.50;;;4.43;;
9942;SDS011;5010;45.080;7.634;2023-04-24T08:15:49;5.72;;;4.65;;
9942;SDS011;5010;45.080;7.634;2023-04-24T08:18:16;12.82;;;5.40;;
9942;SDS011;5010;45.080;7.634;2023-04-24T08:20:43;5.70;;;4.20;;
9942;SDS011;5010;45.080;7.634;2023-04-24T08:23:10;5.18;;;4.85;;
9942;SDS011;5010;45.080;7.634;2023-04-24T08:25:37;5.65;;;4.25;;
9942;SDS011;5010;45.080;7.634;2023-04-24T08:28:06;6.28;;;5.13;;
9942;SDS011;5010;45.080;7.634;2023-04-24T08:30:34;6.75;;;4.43;;
9942;SDS011;5010;45.080;7.634;2023-04-24T08:33:03;6.13;;;5.10;;
9942;SDS011;5010;45.080;7.634;2023-04-24T08:35:30;7.00;;;5.10;;
9942;SDS011;5010;45.080;7.634;2023-04-24T08:37:57;8.10;;;4.72;;
9942;SDS011;5010;45.080;7.634;2023-04-24T08:40:27;10.38;;;5.15;;
9942;SDS011;5010;45.080;7.634;2023-04-24T08:42:55;5.88;;;5.10;;
9942;SDS011;5010;45.080;7.634;2023-04-24T08:45:23;7.78;;;6.05;;
9942;SDS011;5010;45.080;7.634;2023-04-24T08:47:52;6.38;;;5.80;;
9942;SDS011;5010;45.080;7.634;2023-04-24T08:50:21;6.55;;;4.78;;
9942;SDS011;5010;45.080;7.634;2023-04-24T08:52:49;5.32;;;4.90;;
9942;SDS011;5010;45.080;7.634;2023-04-24T08:55:18;6.85;;;6.10;;
9942;SDS011;5010;45.080;7.634;2023-04-24T08:57:45;7.15;;;5.82;;
9942;SDS011;5010;45.080;7.634;2023-04-24T09:00:17;6.35;;;5.72;;
9942;SDS011;5010;45.080;7.634;2023-04-24T09:02:45;6.25;;;4.60;;
9942;SDS011;5010;45.080;7.634;2023-04-24T09:05:16;7.40;;;5.63;;
9942;SDS011;5010;45.080;7.634;2023-04-24T09:07:47;8.30;;;5.28;;
9942;SDS011;5010;45.080;7.634;2023-04-24T09:10:18;5.30;;;4.93;;
9942;SDS011;5010;45.080;7.634;2023-04-24T09:12:46;7.43;;;5.55;;
9942;SDS011;5010;45.080;7.634;2023-04-24T09:15:13;6.32;;;5.93;;
9942;SDS011;5010;45.080;7.634;2023-04-24T09:17:40;6.00;;;4.40;;
9942;SDS011;5010;45.080;7.634;2023-04-24T09:20:07;7.32;;;4.95;;
9942;SDS011;5010;45.080;7.634;2023-04-24T09:22:34;5.85;;;4.38;;
9942;SDS011;5010;45.080;7.634;2023-04-24T09:25:04;5.55;;;4.95;;
9942;SDS011;5010;45.080;7.634;2023-04-24T09:27:32;5.68;;;5.38;;
9942;SDS011;5010;45.080;7.634;2023-04-24T09:30:00;5.80;;;5.50;;
9942;SDS011;5010;45.080;7.634;2023-04-24T09:32:27;5.97;;;4.78;;
9942;SDS011;5010;45.080;7.634;2023-04-24T09:35:05;6.03;;;5.75;;
9942;SDS011;5010;45.080;7.634;2023-04-24T09:37:36;7.00;;;5.13;;
9942;SDS011;5010;45.080;7.634;2023-04-24T09:40:09;6.20;;;4.65;;
9942;SDS011;5010;45.080;7.634;2023-04-24T09:42:43;6.30;;;5.32;;
9942;SDS011;5010;45.080;7.634;2023-04-24T09:45:11;6.80;;;6.38;;
9942;SDS011;5010;45.080;7.634;2023-04-24T09:47:38;6.55;;;4.85;;
9942;SDS011;5010;45.080;7.634;2023-04-24T09:50:09;6.43;;;5.55;;
9942;SDS011;5010;45.080;7.634;2023-04-24T09:52:39;5.35;;;4.75;;
9942;SDS011;5010;45.080;7.634;2023-04-24T09:55:11;7.18;;;6.78;;
9942;SDS011;5010;45.080;7.634;2023-04-24T09:57:51;7.45;;;7.05;;
9942;SDS011;5010;45.080;7.634;2023-04-24T10:00:22;6.57;;;5.40;;
9942;SDS011;5010;45.080;7.634;2023-04-24T10:02:51;7.35;;;5.43;;
9942;SDS011;5010;45.080;7.634;2023-04-24T10:05:23;8.25;;;6.47;;
9942;SDS011;5010;45.080;7.634;2023-04-24T10:07:51;7.00;;;5.90;;
9942;SDS011;5010;45.080;7.634;2023-04-24T10:10:23;6.47;;;5.40;;
9942;SDS011;5010;45.080;7.634;2023-04-24T10:12:50;8.18;;;6.32;;
9942;SDS011;5010;45.080;7.634;2023-04-24T10:15:18;10.30;;;5.45;;
9942;SDS011;5010;45.080;7.634;2023-04-24T10:17:46;6.20;;;5.50;;
9942;SDS011;5010;45.080;7.634;2023-04-24T10:20:17;6.00;;;5.25;;
9942;SDS011;5010;45.080;7.634;2023-04-24T10:22:45;6.75;;;6.35;;
9942;SDS011;5010;45.080;7.634;2023-04-24T10:25:15;6.63;;;5.43;;
9942;SDS011;5010;45.080;7.634;2023-04-24T10:27:44;9.70;;;5.82;;
9942;SDS011;5010;45.080;7.634;2023-04-24T10:30:12;9.18;;;5.65;;
9942;SDS011;5010;45.080;7.634;2023-04-24T10:32:40;6.82;;;5.30;;
9942;SDS011;5010;45.080;7.634;2023-04-24T10:35:07;6.97;;;5.60;;
9942;SDS011;5010;45.080;7.634;2023-04-24T10:37:35;6.00;;;5.55;;
9942;SDS011;5010;45.080;7.634;2023-04-24T10:40:04;6.63;;;4.65;;
9942;SDS011;5010;45.080;7.634;2023-04-24T10:42:33;8.93;;;6.10;;
9942;SDS011;5010;45.080;7.634;2023-04-24T10:45:05;6.25;;;5.07;;
9942;SDS011;5010;45.080;7.634;2023-04-24T10:47:39;6.13;;;5.65;;
9942;SDS011;5010;45.080;7.634;2023-04-24T10:50:08;7.75;;;5.93;;
9942;SDS011;5010;45.080;7.634;2023-04-24T10:52:45;7.10;;;5.70;;
9942;SDS011;5010;45.080;7.634;2023-04-24T10:55:13;6.40;;;5.38;;
9942;SDS011;5010;45.080;7.634;2023-04-24T10:57:47;6.63;;;4.97;;
9942;SDS011;5010;45.080;7.634;2023-04-24T11:00:29;8.27;;;5.35;;
9942;SDS011;5010;45.080;7.634;2023-04-24T11:02:57;6.35;;;4.65;;
9942;SDS011;5010;45.080;7.634;2023-04-24T11:08:24;8.80;;;5.82;;
9942;SDS011;5010;45.080;7.634;2023-04-24T11:11:08;7.45;;;5.80;;
9942;SDS011;5010;45.080;7.634;2023-04-24T11:16:34;8.82;;;5.45;;
9942;SDS011;5010;45.080;7.634;2023-04-24T11:19:03;6.78;;;5.90;;
9942;SDS011;5010;45.080;7.634;2023-04-24T11:21:36;8.02;;;5.60;;
9942;SDS011;5010;45.080;7.634;2023-04-24T11:24:26;7.95;;;5.47;;
9942;SDS011;5010;45.080;7.634;2023-04-24T11:26:55;5.82;;;4.57;;
9942;SDS011;5010;45.080;7.634;2023-04-24T11:29:23;7.03;;;6.00;;
9942;SDS011;5010;45.080;7.634;2023-04-24T11:32:15;8.63;;;5.78;;
9942;SDS011;5010;45.080;7.634;2023-04-24T11:34:45;7.75;;;6.00;;
9942;SDS011;5010;45.080;7.634;2023-04-24T11:37:12;7.88;;;5.95;;
9942;SDS011;5010;45.080;7.634;2023-04-24T11:39:40;8.55;;;5.50;;
9942;SDS011;5010;45.080;7.634;2023-04-24T11:42:06;6.60;;;5.13;;
9942;SDS011;5010;45.080;7.634;2023-04-24T11:44:34;7.63;;;5.60;;
9942;SDS011;5010;45.080;7.634;2023-04-24T11:47:02;6.53;;;4.97;;
9942;SDS011;5010;45.080;7.634;2023-04-24T11:49:30;7.40;;;5.75;;
9942;SDS011;5010;45.080;7.634;2023-04-24T11:51:57;12.77;;;6.20;;
9942;SDS011;5010;45.080;7.634;2023-04-24T11:54:25;10.55;;;5.00;;
9942;SDS011;5010;45.080;7.634;2023-04-24T11:56:52;5.55;;;4.75;;
9942;SDS011;5010;45.080;7.634;2023-04-24T11:59:19;6.22;;;4.40;;
9942;SDS011;5010;45.080;7.634;2023-04-24T12:01:46;7.45;;;5.45;;
9942;SDS011;5010;45.080;7.634;2023-04-24T12:04:13;6.78;;;4.68;;
9942;SDS011;5010;45.080;7.634;2023-04-24T12:09:27;6.82;;;4.97;;
9942;SDS011;5010;45.080;7.634;2023-04-24T12:11:54;6.68;;;5.90;;
9942;SDS011;5010;45.080;7.634;2023-04-24T12:14:22;11.73;;;5.72;;
9942;SDS011;5010;45.080;7.634;2023-04-24T12:16:49;7.18;;;4.93;;
9942;SDS011;5010;45.080;7.634;2023-04-24T12:19:17;5.55;;;4.55;;
9942;SDS011;5010;45.080;7.634;2023-04-24T12:21:58;5.18;;;3.70;;
9942;SDS011;5010;45.080;7.634;2023-04-24T12:24:28;5.30;;;3.92;;
9942;SDS011;5010;45.080;7.634;2023-04-24T12:26:55;6.15;;;3.50;;
9942;SDS011;5010;45.080;7.634;2023-04-24T12:29:23;5.15;;;3.40;;
9942;SDS011;5010;45.080;7.634;2023-04-24T12:31:50;5.57;;;3.90;;
9942;SDS011;5010;45.080;7.634;2023-04-24T12:34:17;5.13;;;3.72;;
9942;SDS011;5010;45.080;7.634;2023-04-24T12:36:45;4.20;;;3.35;;
9942;SDS011;5010;45.080;7.634;2023-04-24T12:39:17;4.88;;;3.58;;
9942;SDS011;5010;45.080;7.634;2023-04-24T12:42:00;4.50;;;3.13;;
9942;SDS011;5010;45.080;7.634;2023-04-24T12:44:30;6.25;;;3.20;;
9942;SDS011;5010;45.080;7.634;2023-04-24T12:46:59;4.43;;;3.75;;
9942;SDS011;5010;45.080;7.634;2023-04-24T12:49:26;4.93;;;2.85;;
9942;SDS011;5010;45.080;7.634;2023-04-24T12:51:53;3.95;;;2.50;;
9942;SDS011;5010;45.080;7.634;2023-04-24T12:54:21;4.10;;;2.75;;
9942;SDS011;5010;45.080;7.634;2023-04-24T12:56:48;6.15;;;3.25;;
9942;SDS011;5010;45.080;7.634;2023-04-24T12:59:15;3.97;;;2.40;;
9942;SDS011;5010;45.080;7.634;2023-04-24T13:01:42;4.40;;;3.63;;
9942;SDS011;5010;45.080;7.634;2023-04-24T13:04:10;7.15;;;2.80;;
9942;SDS011;5010;45.080;7.634;2023-04-24T13:06:36;4.00;;;2.50;;
9942;SDS011;5010;45.080;7.634;2023-04-24T13:09:03;4.95;;;2.65;;
9942;SDS011;5010;45.080;7.634;2023-04-24T13:11:32;4.20;;;2.60;;
9942;SDS011;5010;45.080;7.634;2023-04-24T13:13:59;4.45;;;3.15;;
9942;SDS011;5010;45.080;7.634;2023-04-24T13:16:26;5.22;;;2.65;;
9942;SDS011;5010;45.080;7.634;2023-04-24T13:18:53;4.35;;;2.80;;
9942;SDS011;5010;45.080;7.634;2023-04-24T13:21:20;3.75;;;2.00;;
9942;SDS011;5010;45.080;7.634;2023-04-24T13:23:47;4.90;;;2.53;;
9942;SDS011;5010;45.080;7.634;2023-04-24T13:26:14;4.00;;;2.80;;
9942;SDS011;5010;45.080;7.634;2023-04-24T13:28:42;5.03;;;3.15;;
9942;SDS011;5010;45.080;7.634;2023-04-24T13:31:09;6.45;;;2.60;;
9942;SDS011;5010;45.080;7.634;2023-04-24T13:33:36;4.05;;;3.05;;
9942;SDS011;5010;45.080;7.634;2023-04-24T13:36:03;3.90;;;2.42;;
9942;SDS011;5010;45.080;7.634;2023-04-24T13:38:30;4.70;;;4.20;;
9942;SDS011;5010;45.080;7.634;2023-04-24T13:40:57;4.78;;;3.28;;
9942;SDS011;5010;45.080;7.634;2023-04-24T13:43:24;4.00;;;2.70;;
9942;SDS011;5010;45.080;7.634;2023-04-24T13:45:52;5.43;;;4.22;;
9942;SDS011;5010;45.080;7.634;2023-04-24T13:48:19;9.23;;;3.50;;
9942;SDS011;5010;45.080;7.634;2023-04-24T13:50:46;4.00;;;2.67;;
9942;SDS011;5010;45.080;7.634;2023-04-24T13:53:14;4.20;;;2.90;;
9942;SDS011;5010;45.080;7.634;2023-04-24T13:55:41;6.15;;;3.55;;
9942;SDS011;5010;45.080;7.634;2023-04-24T13:58:08;4.65;;;3.45;;
9942;SDS011;5010;45.080;7.634;2023-04-24T14:00:35;4.35;;;3.45;;
9942;SDS011;5010;45.080;7.634;2023-04-24T14:03:03;5.53;;;3.50;;
9942;SDS011;5010;45.080;7.634;2023-04-24T14:05:30;4.10;;;2.90;;
9942;SDS011;5010;45.080;7.634;2023-04-24T14:07:57;4.90;;;3.85;;
9942;SDS011;5010;45.080;7.634;2023-04-24T14:10:24;6.15;;;3.00;;
9942;SDS011;5010;45.080;7.634;2023-04-24T14:12:52;5.13;;;2.90;;
9942;SDS011;5010;45.080;7.634;2023-04-24T14:15:19;4.78;;;3.20;;
9942;SDS011;5010;45.080;7.634;2023-04-24T14:17:46;4.20;;;3.08;;
9942;SDS011;5010;45.080;7.634;2023-04-24T14:20:15;4.07;;;3.20;;
9942;SDS011;5010;45.080;7.634;2023-04-24T14:22:42;4.60;;;3.00;;
9942;SDS011;5010;45.080;7.634;2023-04-24T14:25:09;4.68;;;3.75;;
9942;SDS011;5010;45.080;7.634;2023-04-24T14:27:36;3.90;;;2.40;;
9942;SDS011;5010;45.080;7.634;2023-04-24T14:30:03;3.90;;;2.70;;
9942;SDS011;5010;45.080;7.634;2023-04-24T14:32:31;4.53;;;2.90;;
9942;SDS011;5010;45.080;7.634;2023-04-24T14:34:58;4.93;;;3.03;;
9942;SDS011;5010;45.080;7.634;2023-04-24T14:37:26;4.10;;;2.70;;
9942;SDS011;5010;45.080;7.634;2023-04-24T14:39:53;5.35;;;3.20;;
9942;SDS011;5010;45.080;7.634;2023-04-24T14:42:20;4.00;;;2.72;;
9942;SDS011;5010;45.080;7.634;2023-04-24T14:44:47;4.43;;;2.88;;
9942;SDS011;5010;45.080;7.634;2023-04-24T14:47:14;5.28;;;3.03;;
9942;SDS011;5010;45.080;7.634;2023-04-24T14:49:42;4.30;;;3.08;;
9942;SDS011;5010;45.080;7.634;2023-04-24T14:52:10;6.55;;;3.15;;
9942;SDS011;5010;45.080;7.634;2023-04-24T14:54:39;5.00;;;3.05;;
9942;SDS011;5010;45.080;7.634;2023-04-24T14:57:06;4.50;;;3.20;;
9942;SDS011;5010;45.080;7.634;2023-04-24T14:59:33;4.70;;;2.65;;
9942;SDS011;5010;45.080;7.634;2023-04-24T15:02:00;4.00;;;2.80;;
9942;SDS011;5010;45.080;7.634;2023-04-24T15:04:28;4.97;;;2.83;;
9942;SDS011;5010;45.080;7.634;2023-04-24T15:06:56;6.28;;;4.40;;
9942;SDS011;5010;45.080;7.634;2023-04-24T15:09:23;5.38;;;2.90;;
9942;SDS011;5010;45.080;7.634;2023-04-24T15:11:52;4.38;;;3.35;;
9942;SDS011;5010;45.080;7.634;2023-04-24T15:14:20;5.85;;;3.58;;
9942;SDS011;5010;45.080;7.634;2023-04-24T15:16:47;3.83;;;2.58;;
9942;SDS011;5010;45.080;7.634;2023-04-24T15:19:13;4.85;;;3.08;;
9942;SDS011;5010;45.080;7.634;2023-04-24T15:21:40;3.88;;;2.65;;
9942;SDS011;5010;45.080;7.634;2023-04-24T15:24:09;4.00;;;2.60;;
9942;SDS011;5010;45.080;7.634;2023-04-24T15:26:36;6.88;;;3.30;;
9942;SDS011;5010;45.080;7.634;2023-04-24T15:29:04;5.10;;;3.30;;